Time;durP1;ratioP1;P1;durP2;ratioP2;P2;SDS_P1;SDS_P2;PMS_P1;PMS_P2;Temp;Humidity;BMP_temperature;BMP_pressure;BME280_temperature;BME280_humidity;BME280_pressure;Samples;Min_cycle;Max_cycle;Signal;HPM_P1;HPM_P2
2021/07/03 00:00:58;;;;;;;4.55;1.20;;;15.30;99.90;;;;;;4190663;28;20056;-62
2021/07/03 00:02:59;;;;;;;1.40;1.27;;;15.30;99.90;;;;;;4191489;28;20090;-61
2021/07/03 00:05:00;;;;;;;2.10;1.20;;;15.30;99.90;;;;;;4190875;28;20892;-61
2021/07/03 00:07:01;;;;;;;1.50;1.40;;;15.30;99.90;;;;;;4191377;28;20052;-61
2021/07/03 00:09:02;;;;;;;1.40;1.30;;;15.30;99.90;;;;;;4189942;28;20648;-61
2021/07/03 00:11:06;;;;;;;1.45;1.20;;;15.20;99.90;;;;;;4190438;28;20044;-61
2021/07/03 00:13:07;;;;;;;1.35;1.25;;;15.20;99.90;;;;;;4191648;28;20028;-61
2021/07/03 00:15:15;;;;;;;2.78;1.23;;;15.10;99.90;;;;;;4190421;28;20037;-61
2021/07/03 00:17:17;;;;;;;3.92;1.40;;;15.10;99.90;;;;;;4191858;28;20090;-61
2021/07/03 00:19:18;;;;;;;2.35;1.08;;;15.00;99.90;;;;;;4190364;28;20574;-61
2021/07/03 00:21:19;;;;;;;3.70;1.70;;;14.90;99.90;;;;;;4190367;28;20095;-61
2021/07/03 00:23:20;;;;;;;3.17;1.50;;;14.80;99.90;;;;;;4189197;28;20093;-61
2021/07/03 00:25:22;;;;;;;1.58;1.20;;;14.80;99.90;;;;;;4175260;28;20041;-61
2021/07/03 00:27:23;;;;;;;2.70;1.75;;;14.80;99.90;;;;;;4173526;28;20041;-62
2021/07/03 00:29:24;;;;;;;3.20;1.77;;;14.80;99.90;;;;;;4188953;28;20153;-62
2021/07/03 00:31:25;;;;;;;3.35;1.73;;;14.80;99.90;;;;;;4189885;28;20049;-61
2021/07/03 00:33:26;;;;;;;1.67;1.58;;;14.70;99.90;;;;;;4191181;28;20090;-62
2021/07/03 00:35:28;;;;;;;4.30;1.57;;;14.70;99.90;;;;;;4189995;28;20079;-61
2021/07/03 00:37:29;;;;;;;2.50;1.53;;;14.70;99.90;;;;;;4190930;28;20062;-61
2021/07/03 00:39:30;;;;;;;4.07;1.80;;;14.70;99.90;;;;;;4190531;28;20022;-62
2021/07/03 00:41:31;;;;;;;2.67;1.57;;;14.70;99.90;;;;;;4189951;28;20385;-62
2021/07/03 00:43:32;;;;;;;7.37;2.20;;;14.70;99.90;;;;;;4190681;28;20091;-61
2021/07/03 00:45:33;;;;;;;3.50;1.57;;;14.70;99.90;;;;;;4190066;28;20045;-62
2021/07/03 00:47:35;;;;;;;3.50;2.03;;;14.60;99.90;;;;;;4190922;28;20033;-61
2021/07/03 00:49:37;;;;;;;5.83;2.27;;;14.60;99.90;;;;;;4189920;28;20036;-61
2021/07/03 00:51:38;;;;;;;4.80;2.20;;;14.60;99.90;;;;;;4190393;28;20377;-62
2021/07/03 00:53:40;;;;;;;2.23;1.50;;;14.60;99.90;;;;;;4189920;28;20551;-61
2021/07/03 00:55:41;;;;;;;3.97;1.40;;;14.60;99.90;;;;;;4191061;28;20485;-62
2021/07/03 00:57:43;;;;;;;5.23;1.60;;;14.60;99.90;;;;;;4189664;28;20048;-62
2021/07/03 00:59:46;;;;;;;4.40;1.50;;;14.60;99.90;;;;;;4190323;28;20082;-61
2021/07/03 01:01:48;;;;;;;1.57;1.40;;;14.60;99.90;;;;;;4173143;28;20075;-61
2021/07/03 01:03:49;;;;;;;2.40;1.60;;;14.60;99.90;;;;;;4186272;28;20068;-61
2021/07/03 01:05:50;;;;;;;3.20;1.60;;;14.60;99.90;;;;;;4189741;28;20041;-62
2021/07/03 01:07:51;;;;;;;1.60;1.50;;;14.60;99.90;;;;;;4190405;28;20082;-61
2021/07/03 01:09:53;;;;;;;3.20;1.40;;;14.60;99.90;;;;;;4189029;28;20442;-60
2021/07/03 01:11:54;;;;;;;6.97;3.03;;;14.70;99.90;;;;;;4190155;28;20025;-61
2021/07/03 01:13:55;;;;;;;3.43;1.70;;;14.70;99.90;;;;;;4189704;28;20025;-61
2021/07/03 01:15:56;;;;;;;2.33;1.52;;;14.70;99.90;;;;;;4189462;28;20481;-61
2021/07/03 01:17:59;;;;;;;1.70;1.50;;;14.70;99.90;;;;;;4190577;28;20024;-61
2021/07/03 01:20:00;;;;;;;5.30;1.40;;;14.70;99.90;;;;;;4188775;28;20141;-61
2021/07/03 01:22:04;;;;;;;4.27;1.37;;;14.80;99.90;;;;;;4190333;28;20024;-62
2021/07/03 01:24:05;;;;;;;3.67;1.40;;;14.80;99.90;;;;;;4189616;28;20054;-62
2021/07/03 01:26:07;;;;;;;3.13;1.27;;;14.80;99.90;;;;;;4190843;28;20032;-61
2021/07/03 01:28:10;;;;;;;5.23;1.57;;;14.80;99.90;;;;;;4189494;28;20075;-61
2021/07/03 01:30:12;;;;;;;1.70;1.60;;;14.80;99.90;;;;;;4190580;28;20028;-61
2021/07/03 01:32:13;;;;;;;1.70;1.50;;;14.80;99.90;;;;;;4189078;28;20555;-62
2021/07/03 01:34:16;;;;;;;1.50;1.40;;;14.90;99.90;;;;;;4190203;28;20025;-61
2021/07/03 01:36:17;;;;;;;1.70;1.60;;;14.90;99.90;;;;;;4188603;28;20074;-61
2021/07/03 01:38:21;;;;;;;1.80;1.70;;;14.90;99.90;;;;;;4189926;28;20447;-63
2021/07/03 01:40:22;;;;;;;2.80;1.45;;;14.90;99.90;;;;;;4187710;28;20040;-62
2021/07/03 01:42:23;;;;;;;3.10;1.83;;;14.90;99.90;;;;;;4189952;28;20709;-62
2021/07/03 01:44:26;;;;;;;4.17;1.70;;;14.90;99.90;;;;;;4187860;28;20036;-61
2021/07/03 01:46:28;;;;;;;3.23;1.80;;;14.90;99.90;;;;;;4189959;28;20036;-61
2021/07/03 01:48:31;;;;;;;5.60;2.43;;;14.90;99.90;;;;;;4189314;28;20067;-61
2021/07/03 01:50:32;;;;;;;2.83;1.90;;;14.90;99.90;;;;;;4189421;28;20050;-61
2021/07/03 01:52:34;;;;;;;3.43;2.47;;;14.90;99.90;;;;;;4189390;28;20032;-61
2021/07/03 01:54:36;;;;;;;3.60;2.37;;;14.90;99.90;;;;;;4189003;28;20025;-61
2021/07/03 01:56:41;;;;;;;3.60;2.10;;;14.80;99.90;;;;;;4189540;28;20029;-61
2021/07/03 01:58:42;;;;;;;4.00;1.87;;;14.70;99.90;;;;;;4189165;28;20465;-61
2021/07/03 02:00:44;;;;;;;3.53;2.10;;;14.70;99.90;;;;;;4190034;28;20040;-60
2021/07/03 02:02:45;;;;;;;6.67;2.27;;;14.70;99.90;;;;;;4189151;28;20049;-61
2021/07/03 02:04:46;;;;;;;3.37;2.23;;;14.80;99.90;;;;;;4190192;28;20370;-61
2021/07/03 02:06:48;;;;;;;2.30;1.83;;;14.90;99.90;;;;;;4189028;28;20090;-61
2021/07/03 02:08:49;;;;;;;4.10;1.57;;;14.80;99.90;;;;;;4190051;28;20550;-61
2021/07/03 02:10:51;;;;;;;1.75;1.60;;;14.80;99.90;;;;;;4188075;28;20442;-61
2021/07/03 02:12:52;;;;;;;1.27;1.13;;;14.90;99.90;;;;;;4189152;28;20036;-61
2021/07/03 02:14:53;;;;;;;1.80;1.20;;;14.90;99.90;;;;;;4188289;28;20025;-61
2021/07/03 02:16:54;;;;;;;4.00;1.10;;;14.90;99.90;;;;;;4189832;28;20074;-61
2021/07/03 02:18:55;;;;;;;3.30;1.37;;;14.80;99.90;;;;;;4188963;28;20021;-61
2021/07/03 02:20:57;;;;;;;3.47;1.40;;;14.90;99.90;;;;;;4189029;28;20090;-62
2021/07/03 02:23:02;;;;;;;2.27;1.27;;;14.90;99.90;;;;;;4189273;28;20036;-61
2021/07/03 02:25:04;;;;;;;1.03;0.83;;;15.00;99.90;;;;;;4189425;28;20805;-61
2021/07/03 02:27:05;;;;;;;1.30;1.10;;;14.90;99.90;;;;;;4188359;28;20022;-61
2021/07/03 02:29:06;;;;;;;1.73;0.70;;;14.90;99.90;;;;;;4188437;28;20040;-61
2021/07/03 02:31:07;;;;;;;1.70;0.90;;;14.90;99.90;;;;;;4189247;28;20924;-61
2021/07/03 02:33:09;;;;;;;0.80;0.73;;;14.80;99.90;;;;;;4187698;28;20374;-61
2021/07/03 02:35:12;;;;;;;1.27;1.17;;;14.80;99.90;;;;;;4189883;28;20086;-61
2021/07/03 02:37:14;;;;;;;1.60;0.70;;;14.80;99.90;;;;;;4188396;28;20029;-61
2021/07/03 02:39:15;;;;;;;2.00;1.13;;;14.90;99.90;;;;;;4189519;28;20040;-61
2021/07/03 02:41:18;;;;;;;0.80;0.80;;;14.90;99.90;;;;;;4187691;28;20048;-61
2021/07/03 02:43:19;;;;;;;1.90;1.03;;;14.90;99.90;;;;;;4187822;28;20044;-62
2021/07/03 02:45:21;;;;;;;0.97;0.93;;;14.90;99.90;;;;;;4188737;28;20860;-61
2021/07/03 02:47:22;;;;;;;1.40;1.30;;;14.90;99.90;;;;;;4190068;28;20040;-62
2021/07/03 02:49:25;;;;;;;1.10;1.00;;;14.90;99.90;;;;;;4188519;28;20020;-62
2021/07/03 02:51:26;;;;;;;1.33;1.23;;;14.90;99.90;;;;;;4189351;28;20102;-61
2021/07/03 02:53:27;;;;;;;1.40;1.30;;;14.90;99.90;;;;;;4188677;28;20145;-61
2021/07/03 02:55:28;;;;;;;1.40;1.20;;;14.90;99.90;;;;;;4188222;28;20036;-61
2021/07/03 02:57:30;;;;;;;1.80;0.90;;;14.90;99.90;;;;;;4188520;28;20089;-60
2021/07/03 02:59:31;;;;;;;2.80;1.10;;;14.90;99.90;;;;;;4188181;28;20512;-61
2021/07/03 03:01:32;;;;;;;4.17;1.37;;;15.00;99.90;;;;;;4189314;28;20067;-61
2021/07/03 03:03:33;;;;;;;3.57;1.53;;;14.90;99.90;;;;;;4187915;28;20098;-61
2021/07/03 03:05:34;;;;;;;2.03;1.40;;;15.00;99.90;;;;;;4189519;28;20419;-61
2021/07/03 03:07:36;;;;;;;1.60;1.20;;;15.00;99.90;;;;;;4187297;28;20082;-61
2021/07/03 03:09:37;;;;;;;3.78;1.65;;;15.00;99.90;;;;;;4189496;28;20036;-61
2021/07/03 03:11:39;;;;;;;1.60;1.40;;;15.00;99.90;;;;;;4187286;28;20792;-61
2021/07/03 03:13:40;;;;;;;2.17;1.40;;;15.00;99.90;;;;;;4188158;28;20078;-61
2021/07/03 03:15:41;;;;;;;2.63;1.77;;;15.00;99.90;;;;;;4187992;28;20573;-61
2021/07/03 03:17:43;;;;;;;1.67;1.57;;;15.00;99.90;;;;;;4189699;28;20094;-61
2021/07/03 03:19:44;;;;;;;3.53;1.63;;;15.00;99.90;;;;;;4187963;28;20032;-61
2021/07/03 03:21:47;;;;;;;2.60;1.60;;;15.00;99.90;;;;;;4188863;28;20106;-62
2021/07/03 03:23:49;;;;;;;1.95;1.58;;;15.10;99.90;;;;;;4188547;28;20028;-61
2021/07/03 03:25:50;;;;;;;3.03;1.63;;;15.10;99.90;;;;;;4187993;28;20051;-61
2021/07/03 03:27:51;;;;;;;3.47;1.63;;;15.10;99.90;;;;;;4187798;28;20094;-61
2021/07/03 03:29:52;;;;;;;2.17;1.97;;;15.10;99.90;;;;;;4188062;28;20554;-61
2021/07/03 03:31:53;;;;;;;2.20;1.80;;;15.20;99.90;;;;;;4188903;28;20972;-61
2021/07/03 03:33:55;;;;;;;1.47;1.37;;;15.10;99.90;;;;;;4188115;28;20052;-62
2021/07/03 03:35:56;;;;;;;2.90;2.03;;;15.10;99.90;;;;;;4188928;28;20082;-61
2021/07/03 03:37:57;;;;;;;3.72;1.88;;;15.10;99.90;;;;;;4187528;28;20032;-62
2021/07/03 03:39:58;;;;;;;3.67;1.85;;;15.10;99.90;;;;;;4188980;28;20086;-61
2021/07/03 03:41:59;;;;;;;3.42;1.88;;;15.10;99.90;;;;;;4187133;28;20044;-61
2021/07/03 03:44:00;;;;;;;2.38;1.80;;;15.20;99.90;;;;;;4190928;28;20032;-61
2021/07/03 03:46:02;;;;;;;3.72;2.40;;;15.20;99.90;;;;;;4189259;28;20946;-61
2021/07/03 03:48:04;;;;;;;4.70;2.03;;;15.20;99.90;;;;;;4192935;28;20041;-61
2021/07/03 03:50:06;;;;;;;2.30;1.70;;;15.20;99.90;;;;;;4190889;28;20048;-61
2021/07/03 03:52:09;;;;;;;1.67;1.57;;;15.20;99.90;;;;;;4191338;28;20093;-61
2021/07/03 03:54:10;;;;;;;2.78;2.25;;;15.20;99.90;;;;;;4190969;28;20378;-60
2021/07/03 03:56:12;;;;;;;4.15;1.52;;;15.20;99.90;;;;;;4191322;28;20082;-61
2021/07/03 03:58:13;;;;;;;1.50;1.40;;;15.30;99.90;;;;;;4191030;28;20040;-61
2021/07/03 04:00:14;;;;;;;3.65;1.70;;;15.30;99.90;;;;;;4190812;28;20029;-62
2021/07/03 04:02:16;;;;;;;3.53;1.88;;;15.30;99.90;;;;;;4191200;28;20040;-62
2021/07/03 04:04:17;;;;;;;5.30;1.60;;;15.30;99.90;;;;;;4191237;28;20036;-62
2021/07/03 04:06:18;;;;;;;2.22;1.23;;;15.30;99.90;;;;;;4191606;28;20028;-61
2021/07/03 04:08:19;;;;;;;3.92;2.00;;;15.30;99.90;;;;;;4190560;28;20028;-63
2021/07/03 04:10:21;;;;;;;3.42;2.13;;;15.30;99.90;;;;;;4191409;28;20093;-62
2021/07/03 04:12:22;;;;;;;3.20;1.80;;;15.30;99.90;;;;;;4190024;28;20048;-62
2021/07/03 04:14:23;;;;;;;2.90;1.67;;;15.40;99.90;;;;;;4191870;28;20036;-62
2021/07/03 04:16:24;;;;;;;1.95;1.50;;;15.40;99.90;;;;;;4189880;28;20109;-62
2021/07/03 04:18:25;;;;;;;1.85;1.65;;;15.40;99.90;;;;;;4192212;28;20028;-62
2021/07/03 04:20:26;;;;;;;1.88;1.70;;;15.50;99.90;;;;;;4190303;28;20032;-62
2021/07/03 04:22:27;;;;;;;2.53;1.73;;;15.50;99.90;;;;;;4191189;28;20094;-61
2021/07/03 04:24:28;;;;;;;5.13;1.75;;;15.60;99.90;;;;;;4190200;28;20025;-62
2021/07/03 04:26:30;;;;;;;1.55;1.45;;;15.60;99.90;;;;;;4190925;28;20448;-63
2021/07/03 04:28:32;;;;;;;1.50;1.20;;;15.60;99.90;;;;;;4190663;28;20025;-62
2021/07/03 04:30:33;;;;;;;1.60;1.48;;;15.60;99.90;;;;;;4189854;28;20021;-62
2021/07/03 04:32:35;;;;;;;3.92;1.33;;;15.60;99.90;;;;;;4190786;28;20174;-62
2021/07/03 04:34:36;;;;;;;2.83;1.25;;;15.60;99.90;;;;;;4190789;28;20036;-62
2021/07/03 04:36:37;;;;;;;2.25;1.50;;;15.60;99.90;;;;;;4191215;28;20086;-62
2021/07/03 04:38:38;;;;;;;2.35;1.20;;;15.50;99.90;;;;;;4189769;28;20571;-61
2021/07/03 04:40:39;;;;;;;1.48;1.20;;;15.50;99.90;;;;;;4190913;28;20040;-62
2021/07/03 04:42:40;;;;;;;1.50;1.40;;;15.50;99.90;;;;;;4190137;28;20553;-62
2021/07/03 04:44:41;;;;;;;4.68;2.88;;;15.50;99.90;;;;;;4190885;28;20028;-62
2021/07/03 04:46:46;;;;;;;2.45;1.30;;;15.50;99.90;;;;;;4189577;28;20557;-62
2021/07/03 04:48:47;;;;;;;2.38;1.40;;;15.60;99.90;;;;;;4191251;28;20074;-62
2021/07/03 04:50:48;;;;;;;1.75;1.38;;;15.60;99.90;;;;;;4190085;28;20082;-61
2021/07/03 04:52:50;;;;;;;2.92;1.00;;;15.60;99.90;;;;;;4190826;28;20555;-61
2021/07/03 04:54:51;;;;;;;2.08;1.35;;;15.60;99.90;;;;;;4188780;28;20795;-61
2021/07/03 04:57:06;;;;;;;3.83;1.48;;;15.70;99.90;;;;;;4190637;28;20041;-61
2021/07/03 04:59:07;;;;;;;1.02;0.98;;;15.70;99.90;;;;;;4190015;28;20016;-62
2021/07/03 05:01:08;;;;;;;3.53;0.98;;;15.70;99.90;;;;;;4189892;28;20097;-61
2021/07/03 05:03:09;;;;;;;2.80;1.10;;;15.80;99.90;;;;;;4190309;28;20093;-62
2021/07/03 05:05:11;;;;;;;1.75;0.70;;;15.80;99.90;;;;;;4189811;28;20040;-61
2021/07/03 05:07:12;;;;;;;1.42;0.80;;;15.80;99.90;;;;;;4189887;28;20044;-61
2021/07/03 05:09:13;;;;;;;1.00;0.52;;;15.80;99.90;;;;;;4189343;28;20090;-61
2021/07/03 05:11:14;;;;;;;3.03;0.73;;;15.70;99.90;;;;;;4188957;28;20070;-61
2021/07/03 05:13:15;;;;;;;1.92;0.95;;;15.70;99.90;;;;;;4189149;28;20028;-61
2021/07/03 05:15:16;;;;;;;1.05;0.95;;;15.70;99.90;;;;;;4190287;28;20024;-62
2021/07/03 05:17:18;;;;;;;1.33;0.80;;;15.60;99.90;;;;;;4189617;28;20481;-61
2021/07/03 05:19:19;;;;;;;0.60;0.60;;;15.60;99.90;;;;;;4190719;28;20032;-60
2021/07/03 05:21:20;;;;;;;1.95;1.13;;;15.60;99.90;;;;;;4189030;28;21516;-61
2021/07/03 05:23:21;;;;;;;1.75;0.90;;;15.60;99.90;;;;;;4189992;28;20036;-61
2021/07/03 05:25:22;;;;;;;1.75;1.30;;;15.60;99.90;;;;;;4188536;28;20108;-61
2021/07/03 05:27:24;;;;;;;1.83;0.93;;;15.60;99.90;;;;;;4190277;28;20081;-62
2021/07/03 05:29:25;;;;;;;1.80;0.80;;;15.60;99.90;;;;;;4189071;28;20068;-61
2021/07/03 05:31:26;;;;;;;8.18;2.45;;;15.60;99.90;;;;;;4189863;28;20078;-61
2021/07/03 05:33:27;;;;;;;6.63;4.82;;;15.60;99.90;;;;;;4188937;28;20077;-62
2021/07/03 05:35:28;;;;;;;1.48;1.38;;;15.60;99.90;;;;;;4189150;28;20029;-60
2021/07/03 05:37:30;;;;;;;0.90;0.90;;;15.70;99.90;;;;;;4189735;28;20025;-61
2021/07/03 05:39:31;;;;;;;1.52;1.20;;;15.70;99.90;;;;;;4188589;28;20090;-61
2021/07/03 05:41:34;;;;;;;2.05;0.82;;;15.80;99.90;;;;;;4190163;28;20528;-61
2021/07/03 05:43:36;;;;;;;1.35;1.13;;;15.70;99.90;;;;;;4188998;28;20102;-61
2021/07/03 05:45:37;;;;;;;6.18;1.58;;;15.70;99.90;;;;;;4189580;28;20093;-61
2021/07/03 05:47:38;;;;;;;1.38;1.10;;;15.80;99.90;;;;;;4188447;28;20089;-62
2021/07/03 05:49:42;;;;;;;0.90;0.90;;;15.90;99.90;;;;;;4189680;28;20041;-61
2021/07/03 05:51:45;;;;;;;2.20;0.98;;;15.90;99.90;;;;;;4188952;28;20652;-62
2021/07/03 05:53:46;;;;;;;1.40;1.30;;;15.80;99.90;;;;;;4190246;28;20048;-62
2021/07/03 05:55:47;;;;;;;0.93;0.93;;;15.90;99.90;;;;;;4188323;28;20097;-62
2021/07/03 05:57:49;;;;;;;1.30;1.02;;;15.80;99.90;;;;;;4190101;28;20480;-62
2021/07/03 05:59:50;;;;;;;1.67;0.93;;;15.90;99.90;;;;;;4188076;28;20033;-62
2021/07/03 06:01:51;;;;;;;1.30;1.20;;;15.90;99.90;;;;;;4189251;28;20041;-62
2021/07/03 06:03:52;;;;;;;0.63;0.60;;;15.90;99.90;;;;;;4189150;28;20094;-62
2021/07/03 06:05:53;;;;;;;1.60;1.30;;;15.90;99.90;;;;;;4188925;28;20498;-62
2021/07/03 06:07:54;;;;;;;1.20;1.10;;;15.90;99.90;;;;;;4189312;28;20062;-62
2021/07/03 06:09:55;;;;;;;1.23;1.13;;;15.90;99.90;;;;;;4188711;28;20448;-62
2021/07/03 06:11:56;;;;;;;1.90;0.90;;;15.90;99.90;;;;;;4188965;28;20119;-62
2021/07/03 06:14:00;;;;;;;1.40;0.70;;;16.00;99.90;;;;;;4188118;28;20028;-63
2021/07/03 06:16:02;;;;;;;0.60;0.60;;;16.00;99.90;;;;;;4188951;28;20086;-64
2021/07/03 06:18:03;;;;;;;2.75;1.33;;;15.90;99.90;;;;;;4188294;28;21065;-62
2021/07/03 06:20:07;;;;;;;1.80;1.00;;;15.90;99.90;;;;;;4189346;28;20744;-61
2021/07/03 06:22:11;;;;;;;0.82;0.77;;;15.80;99.90;;;;;;4187298;28;20753;-64
2021/07/03 06:24:13;;;;;;;0.85;0.85;;;15.80;99.90;;;;;;4189301;28;20032;-60
2021/07/03 06:26:14;;;;;;;1.80;1.00;;;15.80;99.90;;;;;;4186192;28;20789;-60
2021/07/03 06:28:16;;;;;;;0.80;0.80;;;15.80;99.90;;;;;;4190207;28;20040;-60
2021/07/03 06:30:17;;;;;;;1.92;1.60;;;15.80;99.90;;;;;;4187363;28;20094;-60
2021/07/03 06:32:18;;;;;;;0.98;0.88;;;15.80;99.90;;;;;;4189427;28;20052;-59
2021/07/03 06:34:19;;;;;;;1.58;0.85;;;15.80;99.90;;;;;;4188462;28;20086;-61
2021/07/03 06:36:20;;;;;;;1.65;1.50;;;15.90;99.90;;;;;;4189116;28;20763;-61
2021/07/03 06:38:21;;;;;;;0.90;0.90;;;15.90;99.90;;;;;;4189023;28;20032;-60
2021/07/03 06:40:22;;;;;;;3.38;1.10;;;15.90;99.90;;;;;;4188530;28;20033;-60
2021/07/03 06:42:24;;;;;;;1.83;1.35;;;16.00;99.90;;;;;;4189069;28;20671;-61
2021/07/03 06:44:25;;;;;;;6.63;1.35;;;16.00;99.90;;;;;;4188532;28;20086;-61
2021/07/03 06:46:28;;;;;;;1.30;1.10;;;16.00;99.90;;;;;;4189327;28;20037;-59
2021/07/03 06:48:29;;;;;;;1.95;1.15;;;16.00;99.90;;;;;;4188532;28;20029;-61
2021/07/03 06:50:31;;;;;;;1.55;1.30;;;16.00;99.90;;;;;;4189762;28;20040;-61
2021/07/03 06:52:32;;;;;;;0.70;0.70;;;16.00;99.90;;;;;;4187765;28;20066;-62
2021/07/03 06:54:33;;;;;;;1.92;1.73;;;16.10;99.90;;;;;;4188752;28;20086;-60
2021/07/03 06:56:34;;;;;;;1.40;0.95;;;16.10;99.90;;;;;;4186593;28;20082;-60
2021/07/03 06:58:35;;;;;;;1.63;1.23;;;16.10;99.90;;;;;;4189833;28;20036;-64
2021/07/03 07:00:36;;;;;;;3.47;1.40;;;16.10;99.90;;;;;;4186503;28;20102;-63
2021/07/03 07:02:37;;;;;;;1.73;1.13;;;16.10;99.90;;;;;;4188084;28;20133;-63
2021/07/03 07:04:39;;;;;;;0.70;0.70;;;16.20;99.90;;;;;;4188317;28;20420;-62
2021/07/03 07:06:40;;;;;;;4.43;0.90;;;16.20;99.90;;;;;;4188640;28;20170;-62
2021/07/03 07:08:41;;;;;;;0.80;0.80;;;16.20;99.90;;;;;;4187975;28;20055;-64
2021/07/03 07:10:42;;;;;;;1.63;1.27;;;16.30;99.90;;;;;;4188735;28;20028;-61
2021/07/03 07:12:43;;;;;;;1.00;0.90;;;16.30;99.90;;;;;;4188593;28;20033;-62
2021/07/03 07:14:44;;;;;;;1.17;0.90;;;16.30;99.90;;;;;;4186910;28;20102;-65
2021/07/03 07:16:45;;;;;;;1.35;1.13;;;16.40;99.90;;;;;;4189093;28;20025;-63
2021/07/03 07:18:46;;;;;;;4.20;1.55;;;16.50;99.90;;;;;;4189960;28;20044;-62
2021/07/03 07:20:48;;;;;;;2.50;1.00;;;16.70;99.90;;;;;;4192642;28;20036;-62
2021/07/03 07:22:49;;;;;;;1.30;1.08;;;16.80;99.90;;;;;;4190790;28;20044;-64
2021/07/03 07:24:50;;;;;;;1.30;0.80;;;16.70;99.90;;;;;;4191904;28;20036;-62
2021/07/03 07:26:51;;;;;;;0.90;0.90;;;16.70;99.90;;;;;;4191152;28;20081;-63
2021/07/03 07:28:53;;;;;;;5.38;1.02;;;16.70;99.90;;;;;;4192657;28;20029;-62
2021/07/03 07:30:54;;;;;;;1.27;1.17;;;16.80;99.90;;;;;;4190507;28;20154;-63
2021/07/03 07:32:55;;;;;;;1.98;1.00;;;16.80;99.90;;;;;;4192539;28;20028;-63
2021/07/03 07:34:58;;;;;;;1.33;0.90;;;16.90;99.90;;;;;;4191064;28;20088;-63
2021/07/03 07:36:59;;;;;;;0.88;0.73;;;16.90;99.90;;;;;;4192241;28;20570;-62
2021/07/03 07:39:00;;;;;;;2.45;1.02;;;16.90;99.90;;;;;;4190695;28;20025;-62
2021/07/03 07:41:01;;;;;;;1.48;0.70;;;16.90;99.90;;;;;;4191360;28;20029;-64
2021/07/03 07:43:02;;;;;;;0.93;0.60;;;16.90;99.90;;;;;;4191180;28;20040;-62
2021/07/03 07:45:04;;;;;;;0.82;0.57;;;16.90;99.90;;;;;;4190878;28;20037;-62
2021/07/03 07:47:05;;;;;;;1.48;0.80;;;17.00;99.90;;;;;;4191443;28;20041;-62
2021/07/03 07:49:06;;;;;;;0.80;0.77;;;17.00;99.90;;;;;;4191067;28;20037;-64
2021/07/03 07:51:07;;;;;;;0.77;0.77;;;17.10;99.90;;;;;;4192245;28;20435;-63
2021/07/03 07:53:08;;;;;;;1.95;0.85;;;17.10;99.90;;;;;;4190161;28;20077;-63
2021/07/03 07:55:10;;;;;;;2.30;0.90;;;17.10;99.90;;;;;;4192101;28;20482;-62
2021/07/03 07:57:11;;;;;;;0.60;0.60;;;17.10;99.90;;;;;;4190425;28;20056;-62
2021/07/03 07:59:12;;;;;;;2.53;0.73;;;17.10;99.90;;;;;;4181013;28;20083;-60
2021/07/03 08:01:14;;;;;;;2.58;1.23;;;17.10;99.90;;;;;;4173902;28;20423;-60
2021/07/03 08:03:15;;;;;;;1.25;0.90;;;17.10;99.90;;;;;;4175418;28;20574;-61
2021/07/03 08:05:17;;;;;;;1.08;1.00;;;17.30;99.90;;;;;;4174158;28;21536;-61
2021/07/03 08:07:18;;;;;;;1.30;0.88;;;17.40;99.90;;;;;;4184572;28;20081;-61
2021/07/03 08:09:19;;;;;;;1.02;0.70;;;17.40;99.90;;;;;;4190048;28;20102;-61
2021/07/03 08:11:22;;;;;;;0.88;0.80;;;17.50;99.90;;;;;;4190927;28;20036;-61
2021/07/03 08:13:23;;;;;;;2.25;0.98;;;17.50;99.90;;;;;;4190954;28;20032;-62
2021/07/03 08:15:24;;;;;;;8.93;5.57;;;17.50;99.90;;;;;;4190794;28;20376;-62
2021/07/03 08:17:25;;;;;;;1.55;1.45;;;17.50;99.90;;;;;;4191554;28;20791;-61
2021/07/03 08:19:27;;;;;;;19.65;12.60;;;17.40;99.90;;;;;;4189876;28;20059;-63
2021/07/03 08:21:28;;;;;;;6.63;4.07;;;17.50;99.90;;;;;;4207762;28;20028;-62
2021/07/03 08:23:29;;;;;;;1.83;1.48;;;17.70;99.90;;;;;;4206857;28;20055;-61
2021/07/03 08:25:30;;;;;;;2.45;0.88;;;17.80;99.90;;;;;;4208095;28;20035;-61
2021/07/03 08:27:31;;;;;;;1.20;1.02;;;17.80;99.90;;;;;;4205054;28;20036;-62
2021/07/03 08:29:32;;;;;;;1.02;0.75;;;17.80;99.90;;;;;;4206629;28;20036;-61
2021/07/03 08:31:35;;;;;;;2.60;0.77;;;17.90;99.90;;;;;;4206002;28;20472;-61
2021/07/03 08:33:36;;;;;;;1.05;0.93;;;18.00;99.90;;;;;;4207939;28;20093;-61
2021/07/03 08:35:40;;;;;;;0.50;0.43;;;18.00;99.90;;;;;;4206624;28;20134;-61
2021/07/03 08:37:42;;;;;;;0.88;0.80;;;17.90;99.90;;;;;;4207680;28;20097;-62
2021/07/03 08:39:44;;;;;;;3.17;0.50;;;17.80;99.90;;;;;;4201154;28;20033;-62
2021/07/03 08:41:45;;;;;;;0.70;0.70;;;17.70;99.90;;;;;;4190158;28;20094;-61
2021/07/03 08:43:48;;;;;;;2.47;0.52;;;17.70;99.90;;;;;;4189349;28;20086;-62
2021/07/03 08:45:58;;;;;;;2.83;0.70;;;17.60;99.90;;;;;;4189755;28;20566;-61
2021/07/03 08:47:59;;;;;;;2.97;0.60;;;17.60;99.90;;;;;;4190455;28;20028;-62
2021/07/03 08:50:03;;;;;;;2.10;0.63;;;17.60;99.90;;;;;;4189560;28;20466;-61
2021/07/03 08:52:04;;;;;;;1.42;0.75;;;17.60;99.90;;;;;;4190524;28;20028;-62
2021/07/03 08:54:05;;;;;;;1.15;0.50;;;17.70;99.90;;;;;;4189000;28;20037;-61
2021/07/03 08:56:06;;;;;;;8.43;0.65;;;17.70;99.90;;;;;;4190369;28;20473;-61
2021/07/03 08:58:09;;;;;;;0.50;0.45;;;17.70;99.90;;;;;;4188937;28;20024;-61
2021/07/03 09:00:12;;;;;;;1.35;0.40;;;17.70;99.90;;;;;;4190404;28;20044;-59
2021/07/03 09:02:13;;;;;;;0.40;0.30;;;17.60;99.90;;;;;;4187210;28;20106;-61
2021/07/03 09:04:14;;;;;;;0.70;0.50;;;17.50;99.90;;;;;;4190364;28;20435;-60
2021/07/03 09:06:15;;;;;;;1.60;1.15;;;17.40;99.90;;;;;;4186802;28;20578;-60
2021/07/03 09:08:17;;;;;;;5.13;0.52;;;17.50;99.90;;;;;;4189792;28;20550;-63
2021/07/03 09:10:23;;;;;;;0.30;0.30;;;17.50;99.90;;;;;;4188742;28;20071;-63
2021/07/03 09:12:35;;;;;;;3.63;0.65;;;17.50;99.90;;;;;;4189590;28;20484;-60
2021/07/03 09:14:36;;;;;;;1.48;0.50;;;17.40;99.90;;;;;;4188867;28;20082;-61
2021/07/03 09:16:37;;;;;;;1.00;0.45;;;17.50;99.90;;;;;;4189568;28;20098;-60
2021/07/03 09:18:40;;;;;;;0.40;0.30;;;17.50;99.90;;;;;;4188599;28;20488;-60
2021/07/03 09:20:52;;;;;;;0.32;0.30;;;17.50;99.90;;;;;;4189961;28;20078;-60
2021/07/03 09:23:07;;;;;;;4.30;1.27;;;17.40;99.90;;;;;;4188951;28;20032;-60
2021/07/03 09:25:19;;;;;;;0.63;0.50;;;17.40;99.90;;;;;;4173608;28;20129;-60
2021/07/03 09:27:21;;;;;;;1.20;0.28;;;17.30;99.90;;;;;;4172500;28;20040;-60
2021/07/03 09:29:22;;;;;;;0.65;0.40;;;17.20;99.90;;;;;;4173092;28;20033;-62
2021/07/03 09:31:23;;;;;;;1.25;0.32;;;17.20;99.90;;;;;;4172840;28;20048;-62
2021/07/03 09:33:33;;;;;;;1.48;0.47;;;17.10;99.90;;;;;;4172126;28;20079;-64
2021/07/03 09:35:35;;;;;;;1.38;0.40;;;17.00;99.90;;;;;;4188934;28;20029;-61
2021/07/03 09:37:36;;;;;;;1.52;0.50;;;16.90;99.90;;;;;;4188668;28;20032;-61
2021/07/03 09:39:37;;;;;;;1.17;0.40;;;16.90;99.90;;;;;;4189126;28;20816;-60
2021/07/03 09:41:38;;;;;;;0.57;0.52;;;16.90;99.90;;;;;;4188193;28;20464;-63
2021/07/03 09:43:49;;;;;;;1.73;0.60;;;16.90;99.90;;;;;;4189478;28;20090;-63
2021/07/03 09:45:49;;;;;;;;;;;16.80;99.90;;;;;;4188773;28;20040;-63
2021/07/03 09:48:02;;;;;;;0.80;0.65;;;16.80;99.90;;;;;;4190393;28;19908;-63
2021/07/03 09:50:13;;;;;;;1.02;0.52;;;16.70;99.90;;;;;;4187824;28;20029;-61
2021/07/03 09:52:21;;;;;;;1.42;0.60;;;16.80;99.90;;;;;;4188084;28;20739;-60
2021/07/03 09:54:25;;;;;;;0.70;0.65;;;16.70;99.90;;;;;;4188083;28;20075;-61
2021/07/03 09:56:27;;;;;;;1.92;0.60;;;16.60;99.90;;;;;;4189473;28;20055;-60
2021/07/03 09:58:29;;;;;;;0.80;0.63;;;16.50;99.90;;;;;;4187916;28;20024;-60
2021/07/03 10:00:30;;;;;;;1.50;0.60;;;16.60;99.90;;;;;;4190241;28;20388;-61
2021/07/03 10:02:33;;;;;;;3.47;0.75;;;16.50;99.90;;;;;;4187990;28;20090;-60
2021/07/03 10:04:35;;;;;;;2.88;0.98;;;16.50;99.90;;;;;;4189314;28;20033;-60
2021/07/03 10:06:49;;;;;;;0.93;0.77;;;16.50;99.90;;;;;;4187989;28;20407;-61
2021/07/03 10:08:55;;;;;;;1.30;1.00;;;16.60;99.90;;;;;;4189463;28;20089;-60
2021/07/03 10:10:59;;;;;;;0.88;0.70;;;16.70;99.90;;;;;;4187641;28;20837;-60
2021/07/03 10:13:08;;;;;;;0.93;0.73;;;16.80;99.90;;;;;;4189245;28;20044;-61
2021/07/03 10:15:10;;;;;;;3.22;1.58;;;16.90;99.90;;;;;;4187805;28;20090;-60
2021/07/03 10:17:20;;;;;;;1.70;0.82;;;17.00;99.90;;;;;;4189321;28;20036;-58
2021/07/03 10:19:30;;;;;;;2.53;0.98;;;17.00;99.90;;;;;;4186848;28;20577;-60
2021/07/03 10:21:31;;;;;;;2.67;1.00;;;17.00;99.90;;;;;;4187059;28;20101;-60
2021/07/03 10:23:38;;;;;;;1.75;0.75;;;17.00;99.90;;;;;;4187688;28;20044;-60
2021/07/03 10:25:45;;;;;;;3.63;0.90;;;17.00;99.90;;;;;;4189498;28;20153;-60
2021/07/03 10:28:08;;;;;;;5.38;1.08;;;17.00;99.90;;;;;;4188644;28;20041;-61
2021/07/03 10:30:21;;;;;;;1.25;1.17;;;17.00;99.90;;;;;;4189221;28;20150;-60
2021/07/03 10:32:30;;;;;;;1.73;1.05;;;17.00;99.90;;;;;;4187707;28;20040;-61
2021/07/03 10:34:33;;;;;;;3.78;1.58;;;17.00;99.90;;;;;;4189043;28;20036;-58
2021/07/03 10:36:34;;;;;;;1.65;1.48;;;16.90;99.90;;;;;;4186618;28;20029;-61